sensor_id;sensor_type;location;lat;lon;timestamp;P1;durP1;ratioP1;P2;durP2;ratioP2
3343;SDS011;1685;53.104;8.228;2023-01-05T00:00:51;18.57;;;3.97;;
3343;SDS011;1685;53.104;8.228;2023-01-05T00:03:18;22.00;;;4.10;;
3343;SDS011;1685;53.104;8.228;2023-01-05T00:05:45;16.13;;;5.10;;
3343;SDS011;1685;53.104;8.228;2023-01-05T00:08:14;24.63;;;4.00;;
3343;SDS011;1685;53.104;8.228;2023-01-05T00:10:40;22.67;;;5.33;;
3343;SDS011;1685;53.104;8.228;2023-01-05T00:13:25;14.30;;;3.70;;
3343;SDS011;1685;53.104;8.228;2023-01-05T00:16:10;10.00;;;3.37;;
3343;SDS011;1685;53.104;8.228;2023-01-05T00:18:55;24.30;;;3.70;;
3343;SDS011;1685;53.104;8.228;2023-01-05T00:21:39;19.07;;;3.17;;
3343;SDS011;1685;53.104;8.228;2023-01-05T00:24:25;20.53;;;3.83;;
3343;SDS011;1685;53.104;8.228;2023-01-05T00:26:51;14.10;;;3.67;;
3343;SDS011;1685;53.104;8.228;2023-01-05T00:29:18;18.37;;;3.97;;
3343;SDS011;1685;53.104;8.228;2023-01-05T00:31:45;14.53;;;3.13;;
3343;SDS011;1685;53.104;8.228;2023-01-05T00:34:12;16.03;;;3.00;;
3343;SDS011;1685;53.104;8.228;2023-01-05T00:36:39;19.00;;;3.53;;
3343;SDS011;1685;53.104;8.228;2023-01-05T00:39:07;17.50;;;4.20;;
3343;SDS011;1685;53.104;8.228;2023-01-05T00:41:35;21.27;;;4.00;;
3343;SDS011;1685;53.104;8.228;2023-01-05T00:44:02;19.13;;;4.57;;
3343;SDS011;1685;53.104;8.228;2023-01-05T00:46:29;13.73;;;4.23;;
3343;SDS011;1685;53.104;8.228;2023-01-05T00:48:56;12.17;;;3.13;;
3343;SDS011;1685;53.104;8.228;2023-01-05T00:51:23;20.63;;;3.17;;
3343;SDS011;1685;53.104;8.228;2023-01-05T00:53:50;10.03;;;3.30;;
3343;SDS011;1685;53.104;8.228;2023-01-05T00:56:17;19.13;;;4.60;;
3343;SDS011;1685;53.104;8.228;2023-01-05T00:58:45;21.03;;;3.93;;
3343;SDS011;1685;53.104;8.228;2023-01-05T01:01:12;18.40;;;3.03;;
3343;SDS011;1685;53.104;8.228;2023-01-05T01:03:39;16.20;;;2.30;;
3343;SDS011;1685;53.104;8.228;2023-01-05T01:06:06;11.30;;;3.53;;
3343;SDS011;1685;53.104;8.228;2023-01-05T01:08:33;15.00;;;3.30;;
3343;SDS011;1685;53.104;8.228;2023-01-05T01:11:03;16.60;;;3.50;;
3343;SDS011;1685;53.104;8.228;2023-01-05T01:13:30;17.07;;;4.00;;
3343;SDS011;1685;53.104;8.228;2023-01-05T01:16:05;9.67;;;2.97;;
3343;SDS011;1685;53.104;8.228;2023-01-05T01:18:32;13.63;;;3.60;;
3343;SDS011;1685;53.104;8.228;2023-01-05T01:20:59;16.63;;;3.30;;
3343;SDS011;1685;53.104;8.228;2023-01-05T01:23:26;6.87;;;2.60;;
3343;SDS011;1685;53.104;8.228;2023-01-05T01:25:53;14.60;;;3.33;;
3343;SDS011;1685;53.104;8.228;2023-01-05T01:28:21;22.33;;;3.60;;
3343;SDS011;1685;53.104;8.228;2023-01-05T01:30:48;13.27;;;3.33;;
3343;SDS011;1685;53.104;8.228;2023-01-05T01:33:16;5.80;;;2.90;;
3343;SDS011;1685;53.104;8.228;2023-01-05T01:35:43;21.23;;;3.30;;
3343;SDS011;1685;53.104;8.228;2023-01-05T01:38:10;23.67;;;3.97;;
3343;SDS011;1685;53.104;8.228;2023-01-05T01:40:38;8.43;;;2.40;;
3343;SDS011;1685;53.104;8.228;2023-01-05T01:43:09;9.27;;;3.67;;
3343;SDS011;1685;53.104;8.228;2023-01-05T01:45:38;16.20;;;3.20;;
3343;SDS011;1685;53.104;8.228;2023-01-05T01:48:05;9.33;;;2.70;;
3343;SDS011;1685;53.104;8.228;2023-01-05T01:50:37;15.20;;;2.63;;
3343;SDS011;1685;53.104;8.228;2023-01-05T01:53:07;8.20;;;2.33;;
3343;SDS011;1685;53.104;8.228;2023-01-05T01:55:37;11.70;;;2.40;;
3343;SDS011;1685;53.104;8.228;2023-01-05T01:58:06;7.30;;;2.50;;
3343;SDS011;1685;53.104;8.228;2023-01-05T02:00:37;11.17;;;3.17;;
3343;SDS011;1685;53.104;8.228;2023-01-05T02:03:04;17.70;;;2.97;;
3343;SDS011;1685;53.104;8.228;2023-01-05T02:05:32;4.83;;;1.97;;
3343;SDS011;1685;53.104;8.228;2023-01-05T02:08:02;10.37;;;2.67;;
3343;SDS011;1685;53.104;8.228;2023-01-05T02:10:41;9.37;;;2.50;;
3343;SDS011;1685;53.104;8.228;2023-01-05T02:13:22;11.00;;;2.30;;
3343;SDS011;1685;53.104;8.228;2023-01-05T02:16:00;12.13;;;2.60;;
3343;SDS011;1685;53.104;8.228;2023-01-05T02:18:39;10.07;;;2.60;;
3343;SDS011;1685;53.104;8.228;2023-01-05T02:21:17;6.07;;;2.37;;
3343;SDS011;1685;53.104;8.228;2023-01-05T02:24:04;6.20;;;2.60;;
3343;SDS011;1685;53.104;8.228;2023-01-05T02:27:15;10.23;;;2.70;;
3343;SDS011;1685;53.104;8.228;2023-01-05T02:30:00;10.53;;;3.40;;
3343;SDS011;1685;53.104;8.228;2023-01-05T02:32:48;21.23;;;4.03;;
3343;SDS011;1685;53.104;8.228;2023-01-05T02:35:22;12.70;;;3.97;;
3343;SDS011;1685;53.104;8.228;2023-01-05T02:37:56;13.53;;;3.63;;
3343;SDS011;1685;53.104;8.228;2023-01-05T02:40:28;15.20;;;3.83;;
3343;SDS011;1685;53.104;8.228;2023-01-05T02:42:59;12.63;;;4.07;;
3343;SDS011;1685;53.104;8.228;2023-01-05T02:45:27;15.10;;;4.80;;
3343;SDS011;1685;53.104;8.228;2023-01-05T02:47:56;17.27;;;3.80;;
3343;SDS011;1685;53.104;8.228;2023-01-05T02:50:23;13.60;;;4.10;;
3343;SDS011;1685;53.104;8.228;2023-01-05T02:52:55;20.37;;;4.37;;
3343;SDS011;1685;53.104;8.228;2023-01-05T02:55:26;14.37;;;5.20;;
3343;SDS011;1685;53.104;8.228;2023-01-05T02:57:59;16.30;;;3.93;;
3343;SDS011;1685;53.104;8.228;2023-01-05T03:00:31;20.27;;;4.07;;
3343;SDS011;1685;53.104;8.228;2023-01-05T03:03:06;25.40;;;5.50;;
3343;SDS011;1685;53.104;8.228;2023-01-05T03:05:38;25.63;;;5.10;;
3343;SDS011;1685;53.104;8.228;2023-01-05T03:08:08;18.90;;;4.93;;
3343;SDS011;1685;53.104;8.228;2023-01-05T03:10:49;25.60;;;5.60;;
3343;SDS011;1685;53.104;8.228;2023-01-05T03:13:40;25.53;;;4.70;;
3343;SDS011;1685;53.104;8.228;2023-01-05T03:16:10;12.23;;;3.90;;
3343;SDS011;1685;53.104;8.228;2023-01-05T03:18:42;20.97;;;4.10;;
3343;SDS011;1685;53.104;8.228;2023-01-05T03:21:28;18.40;;;4.20;;
3343;SDS011;1685;53.104;8.228;2023-01-05T03:24:10;15.20;;;4.03;;
3343;SDS011;1685;53.104;8.228;2023-01-05T03:26:54;14.47;;;4.60;;
3343;SDS011;1685;53.104;8.228;2023-01-05T03:29:39;27.73;;;4.90;;
3343;SDS011;1685;53.104;8.228;2023-01-05T03:32:24;17.70;;;3.93;;
3343;SDS011;1685;53.104;8.228;2023-01-05T03:35:13;21.73;;;4.00;;
3343;SDS011;1685;53.104;8.228;2023-01-05T03:37:58;9.97;;;3.70;;
3343;SDS011;1685;53.104;8.228;2023-01-05T03:40:29;9.37;;;3.43;;
3343;SDS011;1685;53.104;8.228;2023-01-05T03:42:57;10.87;;;3.17;;
3343;SDS011;1685;53.104;8.228;2023-01-05T03:45:25;24.07;;;4.10;;
3343;SDS011;1685;53.104;8.228;2023-01-05T03:47:58;8.87;;;2.83;;
3343;SDS011;1685;53.104;8.228;2023-01-05T03:50:27;9.33;;;3.03;;
3343;SDS011;1685;53.104;8.228;2023-01-05T03:52:53;25.53;;;4.60;;
3343;SDS011;1685;53.104;8.228;2023-01-05T03:55:20;30.00;;;4.13;;
3343;SDS011;1685;53.104;8.228;2023-01-05T03:57:47;19.37;;;4.27;;
3343;SDS011;1685;53.104;8.228;2023-01-05T04:00:14;16.33;;;3.73;;
3343;SDS011;1685;53.104;8.228;2023-01-05T04:02:42;20.13;;;4.47;;
3343;SDS011;1685;53.104;8.228;2023-01-05T04:05:08;26.07;;;4.10;;
3343;SDS011;1685;53.104;8.228;2023-01-05T04:07:37;17.73;;;3.87;;
3343;SDS011;1685;53.104;8.228;2023-01-05T04:10:04;23.03;;;4.57;;
3343;SDS011;1685;53.104;8.228;2023-01-05T04:12:31;13.80;;;4.00;;
3343;SDS011;1685;53.104;8.228;2023-01-05T04:14:58;18.57;;;4.13;;
3343;SDS011;1685;53.104;8.228;2023-01-05T04:17:24;13.77;;;4.20;;
3343;SDS011;1685;53.104;8.228;2023-01-05T04:19:51;10.43;;;3.17;;
3343;SDS011;1685;53.104;8.228;2023-01-05T04:22:19;18.33;;;4.20;;
3343;SDS011;1685;53.104;8.228;2023-01-05T04:24:47;11.40;;;3.10;;
3343;SDS011;1685;53.104;8.228;2023-01-05T04:27:13;22.17;;;4.40;;
3343;SDS011;1685;53.104;8.228;2023-01-05T04:29:40;19.97;;;3.47;;
3343;SDS011;1685;53.104;8.228;2023-01-05T04:32:07;16.37;;;3.63;;
3343;SDS011;1685;53.104;8.228;2023-01-05T04:34:34;17.30;;;4.77;;
3343;SDS011;1685;53.104;8.228;2023-01-05T04:37:01;18.87;;;4.63;;
3343;SDS011;1685;53.104;8.228;2023-01-05T04:39:28;14.97;;;3.37;;
3343;SDS011;1685;53.104;8.228;2023-01-05T04:41:56;23.77;;;3.50;;
3343;SDS011;1685;53.104;8.228;2023-01-05T04:44:23;21.37;;;4.30;;
3343;SDS011;1685;53.104;8.228;2023-01-05T04:46:49;19.90;;;3.80;;
3343;SDS011;1685;53.104;8.228;2023-01-05T04:49:17;20.33;;;4.30;;
3343;SDS011;1685;53.104;8.228;2023-01-05T04:51:43;13.83;;;3.53;;
3343;SDS011;1685;53.104;8.228;2023-01-05T04:54:10;21.30;;;5.00;;
3343;SDS011;1685;53.104;8.228;2023-01-05T04:56:37;12.97;;;3.97;;
3343;SDS011;1685;53.104;8.228;2023-01-05T04:59:05;7.73;;;3.40;;
3343;SDS011;1685;53.104;8.228;2023-01-05T05:01:32;30.70;;;4.00;;
3343;SDS011;1685;53.104;8.228;2023-01-05T05:03:59;24.70;;;4.47;;
3343;SDS011;1685;53.104;8.228;2023-01-05T05:06:26;18.73;;;4.50;;
3343;SDS011;1685;53.104;8.228;2023-01-05T05:08:52;16.73;;;4.13;;
3343;SDS011;1685;53.104;8.228;2023-01-05T05:11:19;12.23;;;3.13;;
3343;SDS011;1685;53.104;8.228;2023-01-05T05:13:46;11.00;;;3.90;;
3343;SDS011;1685;53.104;8.228;2023-01-05T05:16:14;31.37;;;3.80;;
3343;SDS011;1685;53.104;8.228;2023-01-05T05:18:41;12.33;;;4.33;;
3343;SDS011;1685;53.104;8.228;2023-01-05T05:21:08;11.07;;;4.00;;
3343;SDS011;1685;53.104;8.228;2023-01-05T05:23:36;14.43;;;3.37;;
3343;SDS011;1685;53.104;8.228;2023-01-05T05:26:03;18.63;;;4.20;;
3343;SDS011;1685;53.104;8.228;2023-01-05T05:28:30;17.70;;;3.87;;
3343;SDS011;1685;53.104;8.228;2023-01-05T05:30:57;16.57;;;4.60;;
3343;SDS011;1685;53.104;8.228;2023-01-05T05:33:26;21.77;;;4.70;;
3343;SDS011;1685;53.104;8.228;2023-01-05T05:35:52;10.80;;;3.90;;
3343;SDS011;1685;53.104;8.228;2023-01-05T05:38:19;25.70;;;4.60;;
3343;SDS011;1685;53.104;8.228;2023-01-05T05:40:46;19.63;;;4.03;;
3343;SDS011;1685;53.104;8.228;2023-01-05T05:43:13;24.23;;;4.60;;
3343;SDS011;1685;53.104;8.228;2023-01-05T05:45:41;17.17;;;4.07;;
3343;SDS011;1685;53.104;8.228;2023-01-05T05:48:08;18.17;;;3.60;;
3343;SDS011;1685;53.104;8.228;2023-01-05T05:50:36;13.20;;;3.73;;
3343;SDS011;1685;53.104;8.228;2023-01-05T05:53:03;27.40;;;4.33;;
3343;SDS011;1685;53.104;8.228;2023-01-05T05:55:30;22.03;;;4.40;;
3343;SDS011;1685;53.104;8.228;2023-01-05T05:57:57;18.17;;;3.90;;
3343;SDS011;1685;53.104;8.228;2023-01-05T06:00:24;12.77;;;3.83;;
3343;SDS011;1685;53.104;8.228;2023-01-05T06:02:51;11.73;;;3.40;;
3343;SDS011;1685;53.104;8.228;2023-01-05T06:05:18;30.20;;;4.13;;
3343;SDS011;1685;53.104;8.228;2023-01-05T06:07:47;23.60;;;4.83;;
3343;SDS011;1685;53.104;8.228;2023-01-05T06:10:14;28.00;;;4.57;;
3343;SDS011;1685;53.104;8.228;2023-01-05T06:12:40;19.60;;;4.00;;
3343;SDS011;1685;53.104;8.228;2023-01-05T06:15:08;15.37;;;3.50;;
3343;SDS011;1685;53.104;8.228;2023-01-05T06:17:35;21.57;;;3.80;;
3343;SDS011;1685;53.104;8.228;2023-01-05T06:20:02;16.73;;;5.57;;
3343;SDS011;1685;53.104;8.228;2023-01-05T06:22:30;21.30;;;4.13;;
3343;SDS011;1685;53.104;8.228;2023-01-05T06:24:58;13.03;;;3.83;;
3343;SDS011;1685;53.104;8.228;2023-01-05T06:27:25;27.73;;;4.50;;
3343;SDS011;1685;53.104;8.228;2023-01-05T06:29:52;15.50;;;4.07;;
3343;SDS011;1685;53.104;8.228;2023-01-05T06:32:18;26.23;;;4.00;;
3343;SDS011;1685;53.104;8.228;2023-01-05T06:34:45;14.17;;;3.53;;
3343;SDS011;1685;53.104;8.228;2023-01-05T06:37:12;13.10;;;4.07;;
3343;SDS011;1685;53.104;8.228;2023-01-05T06:39:39;14.20;;;4.20;;
3343;SDS011;1685;53.104;8.228;2023-01-05T06:42:08;13.47;;;4.03;;
3343;SDS011;1685;53.104;8.228;2023-01-05T06:44:35;14.63;;;4.20;;
3343;SDS011;1685;53.104;8.228;2023-01-05T06:47:02;20.90;;;3.93;;
3343;SDS011;1685;53.104;8.228;2023-01-05T06:49:29;25.83;;;4.00;;
3343;SDS011;1685;53.104;8.228;2023-01-05T06:51:56;10.90;;;3.77;;
3343;SDS011;1685;53.104;8.228;2023-01-05T06:54:23;20.97;;;4.43;;
3343;SDS011;1685;53.104;8.228;2023-01-05T06:56:50;18.40;;;4.70;;
3343;SDS011;1685;53.104;8.228;2023-01-05T06:59:18;15.77;;;4.63;;
3343;SDS011;1685;53.104;8.228;2023-01-05T07:01:45;17.83;;;4.73;;
3343;SDS011;1685;53.104;8.228;2023-01-05T07:04:12;23.27;;;4.00;;
3343;SDS011;1685;53.104;8.228;2023-01-05T07:06:39;17.40;;;4.70;;
3343;SDS011;1685;53.104;8.228;2023-01-05T07:09:06;18.87;;;4.60;;
3343;SDS011;1685;53.104;8.228;2023-01-05T07:11:33;18.57;;;3.70;;
3343;SDS011;1685;53.104;8.228;2023-01-05T07:14:00;29.10;;;4.30;;
3343;SDS011;1685;53.104;8.228;2023-01-05T07:16:28;18.60;;;4.23;;
3343;SDS011;1685;53.104;8.228;2023-01-05T07:18:55;11.60;;;4.20;;
3343;SDS011;1685;53.104;8.228;2023-01-05T07:21:22;14.77;;;4.20;;
3343;SDS011;1685;53.104;8.228;2023-01-05T07:23:49;28.73;;;4.40;;
3343;SDS011;1685;53.104;8.228;2023-01-05T07:26:16;16.43;;;4.70;;
3343;SDS011;1685;53.104;8.228;2023-01-05T07:28:43;15.87;;;4.30;;
3343;SDS011;1685;53.104;8.228;2023-01-05T07:31:10;28.37;;;6.00;;
3343;SDS011;1685;53.104;8.228;2023-01-05T07:33:39;15.80;;;4.20;;
3343;SDS011;1685;53.104;8.228;2023-01-05T07:36:06;21.10;;;4.10;;
3343;SDS011;1685;53.104;8.228;2023-01-05T07:38:33;19.50;;;4.73;;
3343;SDS011;1685;53.104;8.228;2023-01-05T07:41:00;20.00;;;5.43;;
3343;SDS011;1685;53.104;8.228;2023-01-05T07:43:28;26.03;;;5.80;;
3343;SDS011;1685;53.104;8.228;2023-01-05T07:45:56;21.60;;;5.00;;
3343;SDS011;1685;53.104;8.228;2023-01-05T07:48:23;18.83;;;5.33;;
3343;SDS011;1685;53.104;8.228;2023-01-05T07:50:51;19.03;;;4.80;;
3343;SDS011;1685;53.104;8.228;2023-01-05T07:53:18;25.87;;;4.27;;
3343;SDS011;1685;53.104;8.228;2023-01-05T07:55:53;17.37;;;4.43;;
3343;SDS011;1685;53.104;8.228;2023-01-05T07:58:21;16.30;;;4.33;;
3343;SDS011;1685;53.104;8.228;2023-01-05T08:00:48;12.80;;;3.43;;
3343;SDS011;1685;53.104;8.228;2023-01-05T08:03:15;19.13;;;3.40;;
3343;SDS011;1685;53.104;8.228;2023-01-05T08:05:43;15.63;;;3.30;;
3343;SDS011;1685;53.104;8.228;2023-01-05T08:08:11;12.27;;;4.10;;
3343;SDS011;1685;53.104;8.228;2023-01-05T08:10:39;15.63;;;3.23;;
3343;SDS011;1685;53.104;8.228;2023-01-05T08:13:07;9.10;;;2.63;;
3343;SDS011;1685;53.104;8.228;2023-01-05T08:15:53;10.90;;;2.83;;
3343;SDS011;1685;53.104;8.228;2023-01-05T08:18:21;9.27;;;3.00;;
3343;SDS011;1685;53.104;8.228;2023-01-05T08:20:48;8.73;;;2.33;;
3343;SDS011;1685;53.104;8.228;2023-01-05T08:23:18;6.43;;;2.53;;
3343;SDS011;1685;53.104;8.228;2023-01-05T08:25:45;7.47;;;3.53;;
3343;SDS011;1685;53.104;8.228;2023-01-05T08:28:12;5.73;;;2.00;;
3343;SDS011;1685;53.104;8.228;2023-01-05T08:30:39;5.13;;;2.23;;
3343;SDS011;1685;53.104;8.228;2023-01-05T08:33:06;6.53;;;2.40;;
3343;SDS011;1685;53.104;8.228;2023-01-05T08:35:33;11.37;;;3.10;;
3343;SDS011;1685;53.104;8.228;2023-01-05T08:37:59;6.33;;;1.83;;
3343;SDS011;1685;53.104;8.228;2023-01-05T08:40:28;6.90;;;2.23;;
3343;SDS011;1685;53.104;8.228;2023-01-05T08:42:55;5.37;;;1.60;;
3343;SDS011;1685;53.104;8.228;2023-01-05T08:45:22;1.97;;;1.27;;
3343;SDS011;1685;53.104;8.228;2023-01-05T08:47:49;2.53;;;1.33;;
3343;SDS011;1685;53.104;8.228;2023-01-05T08:50:17;10.07;;;1.60;;
3343;SDS011;1685;53.104;8.228;2023-01-05T08:52:44;1.60;;;1.30;;
3343;SDS011;1685;53.104;8.228;2023-01-05T08:55:11;5.30;;;1.93;;
3343;SDS011;1685;53.104;8.228;2023-01-05T08:57:39;1.67;;;1.50;;
3343;SDS011;1685;53.104;8.228;2023-01-05T09:00:06;6.20;;;1.20;;
3343;SDS011;1685;53.104;8.228;2023-01-05T09:02:34;2.83;;;1.40;;
3343;SDS011;1685;53.104;8.228;2023-01-05T09:05:01;6.50;;;1.40;;
3343;SDS011;1685;53.104;8.228;2023-01-05T09:07:28;4.27;;;1.50;;
3343;SDS011;1685;53.104;8.228;2023-01-05T09:09:54;6.70;;;1.53;;
3343;SDS011;1685;53.104;8.228;2023-01-05T09:12:21;7.73;;;1.53;;
3343;SDS011;1685;53.104;8.228;2023-01-05T09:14:49;4.47;;;1.17;;
3343;SDS011;1685;53.104;8.228;2023-01-05T09:17:18;2.30;;;1.53;;
3343;SDS011;1685;53.104;8.228;2023-01-05T09:19:45;3.63;;;1.37;;
3343;SDS011;1685;53.104;8.228;2023-01-05T09:22:11;1.90;;;1.27;;
3343;SDS011;1685;53.104;8.228;2023-01-05T09:24:38;6.00;;;1.60;;
3343;SDS011;1685;53.104;8.228;2023-01-05T09:27:05;1.63;;;1.30;;
3343;SDS011;1685;53.104;8.228;2023-01-05T09:29:33;2.20;;;1.10;;
3343;SDS011;1685;53.104;8.228;2023-01-05T09:32:01;2.00;;;1.13;;
3343;SDS011;1685;53.104;8.228;2023-01-05T09:34:28;3.57;;;1.70;;
3343;SDS011;1685;53.104;8.228;2023-01-05T09:36:55;2.90;;;1.27;;
3343;SDS011;1685;53.104;8.228;2023-01-05T09:39:22;1.90;;;1.10;;
3343;SDS011;1685;53.104;8.228;2023-01-05T09:41:49;3.90;;;1.63;;
3343;SDS011;1685;53.104;8.228;2023-01-05T09:44:24;7.03;;;1.50;;
3343;SDS011;1685;53.104;8.228;2023-01-05T09:46:55;2.67;;;1.23;;
3343;SDS011;1685;53.104;8.228;2023-01-05T09:49:26;4.10;;;1.33;;
3343;SDS011;1685;53.104;8.228;2023-01-05T09:51:54;4.10;;;1.47;;
3343;SDS011;1685;53.104;8.228;2023-01-05T09:54:26;1.43;;;1.33;;
3343;SDS011;1685;53.104;8.228;2023-01-05T09:56:54;5.10;;;1.50;;
3343;SDS011;1685;53.104;8.228;2023-01-05T09:59:24;7.33;;;3.60;;
3343;SDS011;1685;53.104;8.228;2023-01-05T10:01:53;3.47;;;2.03;;
3343;SDS011;1685;53.104;8.228;2023-01-05T10:04:24;3.00;;;1.27;;
3343;SDS011;1685;53.104;8.228;2023-01-05T10:06:56;3.63;;;1.50;;
3343;SDS011;1685;53.104;8.228;2023-01-05T10:09:27;6.10;;;1.80;;
3343;SDS011;1685;53.104;8.228;2023-01-05T10:11:57;5.27;;;1.50;;
3343;SDS011;1685;53.104;8.228;2023-01-05T10:14:45;12.10;;;1.67;;
3343;SDS011;1685;53.104;8.228;2023-01-05T10:17:15;6.10;;;2.30;;
3343;SDS011;1685;53.104;8.228;2023-01-05T10:19:44;1.77;;;1.67;;
3343;SDS011;1685;53.104;8.228;2023-01-05T10:22:17;3.83;;;1.70;;
3343;SDS011;1685;53.104;8.228;2023-01-05T10:24:54;2.60;;;2.10;;
3343;SDS011;1685;53.104;8.228;2023-01-05T10:27:25;2.60;;;1.77;;
3343;SDS011;1685;53.104;8.228;2023-01-05T10:29:56;2.50;;;1.70;;
3343;SDS011;1685;53.104;8.228;2023-01-05T10:32:30;3.77;;;1.70;;
3343;SDS011;1685;53.104;8.228;2023-01-05T10:35:11;8.20;;;2.83;;
3343;SDS011;1685;53.104;8.228;2023-01-05T10:37:58;1.60;;;1.50;;
3343;SDS011;1685;53.104;8.228;2023-01-05T10:40:33;2.30;;;1.83;;
3343;SDS011;1685;53.104;8.228;2023-01-05T10:43:15;6.43;;;1.53;;
3343;SDS011;1685;53.104;8.228;2023-01-05T10:45:50;16.13;;;2.47;;
3343;SDS011;1685;53.104;8.228;2023-01-05T10:48:18;3.13;;;2.10;;
3343;SDS011;1685;53.104;8.228;2023-01-05T10:50:49;10.20;;;2.50;;
3343;SDS011;1685;53.104;8.228;2023-01-05T10:53:20;3.17;;;1.73;;
3343;SDS011;1685;53.104;8.228;2023-01-05T10:55:50;8.60;;;2.17;;
3343;SDS011;1685;53.104;8.228;2023-01-05T10:58:24;6.90;;;1.77;;
3343;SDS011;1685;53.104;8.228;2023-01-05T11:00:53;3.07;;;1.70;;
3343;SDS011;1685;53.104;8.228;2023-01-05T11:03:24;9.77;;;2.50;;
3343;SDS011;1685;53.104;8.228;2023-01-05T11:05:55;6.67;;;2.30;;
3343;SDS011;1685;53.104;8.228;2023-01-05T11:08:24;5.40;;;2.03;;
3343;SDS011;1685;53.104;8.228;2023-01-05T11:10:54;2.53;;;1.80;;
3343;SDS011;1685;53.104;8.228;2023-01-05T11:13:26;12.20;;;4.40;;
3343;SDS011;1685;53.104;8.228;2023-01-05T11:15:58;6.47;;;2.03;;
3343;SDS011;1685;53.104;8.228;2023-01-05T11:18:30;5.53;;;1.97;;
3343;SDS011;1685;53.104;8.228;2023-01-05T11:21:13;6.23;;;2.10;;
3343;SDS011;1685;53.104;8.228;2023-01-05T11:23:42;4.43;;;1.83;;
3343;SDS011;1685;53.104;8.228;2023-01-05T11:26:10;6.83;;;2.00;;
3343;SDS011;1685;53.104;8.228;2023-01-05T11:28:59;19.57;;;2.50;;
3343;SDS011;1685;53.104;8.228;2023-01-05T11:31:27;5.10;;;1.70;;
3343;SDS011;1685;53.104;8.228;2023-01-05T11:34:01;3.77;;;1.73;;
3343;SDS011;1685;53.104;8.228;2023-01-05T11:36:34;3.50;;;1.63;;
3343;SDS011;1685;53.104;8.228;2023-01-05T11:39:02;7.70;;;2.33;;
3343;SDS011;1685;53.104;8.228;2023-01-05T11:41:29;3.40;;;1.40;;
3343;SDS011;1685;53.104;8.228;2023-01-05T11:43:56;8.47;;;1.90;;
3343;SDS011;1685;53.104;8.228;2023-01-05T11:46:27;6.60;;;1.80;;
3343;SDS011;1685;53.104;8.228;2023-01-05T11:49:06;10.27;;;1.60;;
3343;SDS011;1685;53.104;8.228;2023-01-05T11:51:35;4.70;;;1.80;;
3343;SDS011;1685;53.104;8.228;2023-01-05T11:54:03;14.40;;;2.80;;
3343;SDS011;1685;53.104;8.228;2023-01-05T11:56:31;12.17;;;2.27;;
3343;SDS011;1685;53.104;8.228;2023-01-05T11:58:58;9.30;;;1.80;;
3343;SDS011;1685;53.104;8.228;2023-01-05T12:01:42;5.03;;;1.63;;
3343;SDS011;1685;53.104;8.228;2023-01-05T12:07:27;10.03;;;2.20;;
3343;SDS011;1685;53.104;8.228;2023-01-05T12:09:58;1.77;;;1.40;;
3343;SDS011;1685;53.104;8.228;2023-01-05T12:12:34;7.07;;;1.70;;
3343;SDS011;1685;53.104;8.228;2023-01-05T12:15:16;3.53;;;1.37;;
3343;SDS011;1685;53.104;8.228;2023-01-05T12:18:05;5.93;;;1.70;;
3343;SDS011;1685;53.104;8.228;2023-01-05T12:20:49;12.23;;;1.97;;
3343;SDS011;1685;53.104;8.228;2023-01-05T12:26:16;7.70;;;1.87;;
3343;SDS011;1685;53.104;8.228;2023-01-05T12:31:47;5.63;;;1.70;;
3343;SDS011;1685;53.104;8.228;2023-01-05T12:34:35;3.37;;;1.40;;
3343;SDS011;1685;53.104;8.228;2023-01-05T12:37:32;5.37;;;1.93;;
3343;SDS011;1685;53.104;8.228;2023-01-05T12:40:24;3.60;;;1.90;;
3343;SDS011;1685;53.104;8.228;2023-01-05T12:43:06;7.03;;;1.80;;
3343;SDS011;1685;53.104;8.228;2023-01-05T12:48:36;10.73;;;2.03;;
3343;SDS011;1685;53.104;8.228;2023-01-05T12:51:09;5.03;;;1.53;;
3343;SDS011;1685;53.104;8.228;2023-01-05T12:53:45;5.20;;;1.70;;
3343;SDS011;1685;53.104;8.228;2023-01-05T12:56:21;8.70;;;2.60;;
3343;SDS011;1685;53.104;8.228;2023-01-05T12:59:01;3.57;;;1.50;;
3343;SDS011;1685;53.104;8.228;2023-01-05T13:01:38;11.70;;;2.10;;
3343;SDS011;1685;53.104;8.228;2023-01-05T13:04:12;1.57;;;1.47;;
3343;SDS011;1685;53.104;8.228;2023-01-05T13:06:50;12.30;;;2.60;;
3343;SDS011;1685;53.104;8.228;2023-01-05T13:09:19;11.30;;;1.73;;
3343;SDS011;1685;53.104;8.228;2023-01-05T13:11:52;3.87;;;1.83;;
3343;SDS011;1685;53.104;8.228;2023-01-05T13:14:23;8.87;;;2.13;;
3343;SDS011;1685;53.104;8.228;2023-01-05T13:16:54;6.83;;;3.40;;
3343;SDS011;1685;53.104;8.228;2023-01-05T13:19:25;9.93;;;2.13;;
3343;SDS011;1685;53.104;8.228;2023-01-05T13:21:55;4.90;;;1.70;;
3343;SDS011;1685;53.104;8.228;2023-01-05T13:24:25;6.10;;;1.73;;
3343;SDS011;1685;53.104;8.228;2023-01-05T13:26:58;6.43;;;1.63;;
3343;SDS011;1685;53.104;8.228;2023-01-05T13:29:27;3.13;;;1.50;;
3343;SDS011;1685;53.104;8.228;2023-01-05T13:32:10;3.13;;;1.27;;
3343;SDS011;1685;53.104;8.228;2023-01-05T13:34:54;6.77;;;2.07;;
3343;SDS011;1685;53.104;8.228;2023-01-05T13:37:56;12.43;;;1.67;;
3343;SDS011;1685;53.104;8.228;2023-01-05T13:40:43;6.70;;;1.53;;
3343;SDS011;1685;53.104;8.228;2023-01-05T13:43:35;2.33;;;1.30;;
3343;SDS011;1685;53.104;8.228;2023-01-05T13:46:17;6.70;;;1.40;;
3343;SDS011;1685;53.104;8.228;2023-01-05T13:48:55;2.70;;;1.80;;
3343;SDS011;1685;53.104;8.228;2023-01-05T13:54:24;2.90;;;1.50;;
3343;SDS011;1685;53.104;8.228;2023-01-05T13:57:00;3.27;;;1.53;;
3343;SDS011;1685;53.104;8.228;2023-01-05T13:59:34;2.90;;;1.50;;
3343;SDS011;1685;53.104;8.228;2023-01-05T14:02:02;1.97;;;1.13;;
3343;SDS011;1685;53.104;8.228;2023-01-05T14:04:44;5.77;;;1.57;;
3343;SDS011;1685;53.104;8.228;2023-01-05T14:07:11;2.50;;;1.73;;
3343;SDS011;1685;53.104;8.228;2023-01-05T14:09:41;4.20;;;1.40;;
3343;SDS011;1685;53.104;8.228;2023-01-05T14:12:31;3.93;;;1.67;;
3343;SDS011;1685;53.104;8.228;2023-01-05T14:17:56;4.50;;;1.60;;
3343;SDS011;1685;53.104;8.228;2023-01-05T14:20:33;2.33;;;1.33;;
3343;SDS011;1685;53.104;8.228;2023-01-05T14:23:03;13.67;;;2.20;;
3343;SDS011;1685;53.104;8.228;2023-01-05T14:25:46;4.60;;;1.83;;
3343;SDS011;1685;53.104;8.228;2023-01-05T14:34:14;7.47;;;1.73;;
3343;SDS011;1685;53.104;8.228;2023-01-05T14:36:44;5.83;;;1.70;;
3343;SDS011;1685;53.104;8.228;2023-01-05T14:39:27;9.10;;;2.20;;
3343;SDS011;1685;53.104;8.228;2023-01-05T14:41:57;9.73;;;2.63;;
3343;SDS011;1685;53.104;8.228;2023-01-05T14:44:28;6.00;;;2.17;;
3343;SDS011;1685;53.104;8.228;2023-01-05T14:47:00;4.20;;;2.33;;
3343;SDS011;1685;53.104;8.228;2023-01-05T14:49:29;4.97;;;2.50;;
3343;SDS011;1685;53.104;8.228;2023-01-05T14:51:59;8.47;;;2.93;;
3343;SDS011;1685;53.104;8.228;2023-01-05T14:54:33;5.80;;;3.23;;
3343;SDS011;1685;53.104;8.228;2023-01-05T14:57:20;22.10;;;4.03;;
3343;SDS011;1685;53.104;8.228;2023-01-05T14:59:59;10.47;;;3.87;;
3343;SDS011;1685;53.104;8.228;2023-01-05T15:02:32;7.47;;;2.50;;
3343;SDS011;1685;53.104;8.228;2023-01-05T15:05:09;9.83;;;2.93;;
3343;SDS011;1685;53.104;8.228;2023-01-05T15:07:41;7.13;;;1.90;;
3343;SDS011;1685;53.104;8.228;2023-01-05T15:10:18;9.40;;;2.53;;
3343;SDS011;1685;53.104;8.228;2023-01-05T15:13:23;5.27;;;1.97;;
3343;SDS011;1685;53.104;8.228;2023-01-05T15:16:46;2.83;;;1.83;;
3343;SDS011;1685;53.104;8.228;2023-01-05T15:19:37;6.20;;;2.73;;
3343;SDS011;1685;53.104;8.228;2023-01-05T15:22:29;5.50;;;2.50;;
3343;SDS011;1685;53.104;8.228;2023-01-05T15:25:15;4.27;;;2.00;;
3343;SDS011;1685;53.104;8.228;2023-01-05T15:28:02;2.40;;;1.97;;
3343;SDS011;1685;53.104;8.228;2023-01-05T15:30:47;3.53;;;2.87;;
3343;SDS011;1685;53.104;8.228;2023-01-05T15:33:41;10.87;;;3.20;;
3343;SDS011;1685;53.104;8.228;2023-01-05T15:36:17;7.53;;;3.17;;
3343;SDS011;1685;53.104;8.228;2023-01-05T15:38:49;6.53;;;3.60;;
3343;SDS011;1685;53.104;8.228;2023-01-05T15:41:18;6.13;;;3.10;;
3343;SDS011;1685;53.104;8.228;2023-01-05T15:43:47;11.10;;;2.77;;
3343;SDS011;1685;53.104;8.228;2023-01-05T15:46:16;7.10;;;3.50;;
3343;SDS011;1685;53.104;8.228;2023-01-05T15:48:45;6.87;;;3.67;;
3343;SDS011;1685;53.104;8.228;2023-01-05T15:51:22;10.00;;;3.70;;
3343;SDS011;1685;53.104;8.228;2023-01-05T15:53:52;5.43;;;3.83;;
3343;SDS011;1685;53.104;8.228;2023-01-05T15:56:23;11.77;;;3.50;;
3343;SDS011;1685;53.104;8.228;2023-01-05T15:58:52;8.83;;;3.73;;